Time;durP1;ratioP1;P1;durP2;ratioP2;P2;SDS_P1;SDS_P2;PMS_P1;PMS_P2;Temp;Humidity;BMP_temperature;BMP_pressure;BME280_temperature;BME280_humidity;BME280_pressure;Samples;Min_cycle;Max_cycle;Signal;HPM_P1;HPM_P2
2021/05/07 00:00:32;;;;;;;3.87;3.20;;;5.50;89.30;;;;;;5134185;27;20063;-68
2021/05/07 00:02:57;;;;;;;3.90;3.30;;;5.40;89.20;;;;;;5133808;27;20054;-68
2021/05/07 00:05:23;;;;;;;4.30;3.30;;;5.40;89.30;;;;;;5133065;27;20062;-68
2021/05/07 00:07:49;;;;;;;5.07;3.77;;;5.50;89.40;;;;;;5133774;27;20051;-68
2021/05/07 00:10:14;;;;;;;3.67;3.10;;;5.40;89.20;;;;;;5133861;27;20096;-68
2021/05/07 00:12:41;;;;;;;3.90;3.20;;;5.50;89.40;;;;;;5133594;27;20066;-68
2021/05/07 00:15:08;;;;;;;4.20;3.47;;;5.50;89.40;;;;;;5134272;27;20046;-68
2021/05/07 00:17:35;;;;;;;4.27;2.90;;;5.50;89.30;;;;;;5133577;27;20377;-68
2021/05/07 00:20:00;;;;;;;4.33;3.20;;;5.50;89.30;;;;;;5132751;27;20426;-68
2021/05/07 00:22:26;;;;;;;4.97;3.13;;;5.50;89.50;;;;;;5133607;27;20069;-68
2021/05/07 00:24:54;;;;;;;3.50;3.07;;;5.50;89.50;;;;;;5133664;27;20474;-68
2021/05/07 00:27:19;;;;;;;2.97;2.53;;;5.50;89.30;;;;;;5132827;27;20047;-68
2021/05/07 00:29:46;;;;;;;5.37;2.80;;;5.50;89.10;;;;;;5133441;27;20313;-68
2021/05/07 00:32:12;;;;;;;5.30;3.00;;;5.50;89.20;;;;;;5132632;27;20507;-68
2021/05/07 00:34:38;;;;;;;4.17;2.93;;;5.50;89.10;;;;;;5133725;27;20629;-68
2021/05/07 00:37:04;;;;;;;4.43;2.60;;;5.50;89.10;;;;;;5133285;27;20292;-68
2021/05/07 00:39:29;;;;;;;2.83;2.50;;;5.40;89.10;;;;;;5132729;27;20474;-68
2021/05/07 00:42:02;;;;;;;3.23;2.30;;;5.50;89.30;;;;;;5133341;27;20043;-68
2021/05/07 00:44:37;;;;;;;4.30;2.83;;;5.40;89.20;;;;;;5133185;27;20051;-68
2021/05/07 00:47:06;;;;;;;4.00;2.63;;;5.40;89.30;;;;;;5132376;27;20328;-68
2021/05/07 00:49:34;;;;;;;3.77;3.10;;;5.40;89.40;;;;;;5133207;27;20292;-68
2021/05/07 00:52:01;;;;;;;4.43;3.03;;;5.40;89.40;;;;;;5132769;27;20302;-69
2021/05/07 00:54:29;;;;;;;6.63;3.77;;;5.40;89.40;;;;;;5132366;27;20307;-68
2021/05/07 00:56:54;;;;;;;5.10;3.67;;;5.40;89.30;;;;;;5132094;27;20712;-68
2021/05/07 00:59:20;;;;;;;4.53;3.17;;;5.40;89.40;;;;;;5132678;27;20380;-68
2021/05/07 01:01:46;;;;;;;4.37;3.20;;;5.30;89.50;;;;;;5132030;27;20066;-68
2021/05/07 01:04:12;;;;;;;4.63;2.90;;;5.30;89.50;;;;;;5133252;27;20301;-68
2021/05/07 01:06:38;;;;;;;4.70;2.97;;;5.20;89.50;;;;;;5132812;27;20070;-68
2021/05/07 01:09:04;;;;;;;4.27;3.20;;;5.20;89.60;;;;;;5132108;27;20054;-68
2021/05/07 01:11:31;;;;;;;4.13;3.70;;;5.20;89.90;;;;;;5132562;27;20047;-68
2021/05/07 01:13:57;;;;;;;4.40;3.60;;;5.20;90.00;;;;;;5132806;27;20293;-68
2021/05/07 01:16:22;;;;;;;6.53;3.60;;;5.10;90.00;;;;;;5131745;27;20308;-68
2021/05/07 01:18:48;;;;;;;5.33;3.10;;;5.10;90.00;;;;;;5132795;27;20047;-68
2021/05/07 01:21:14;;;;;;;4.07;2.97;;;5.10;90.10;;;;;;5131936;27;20046;-68
2021/05/07 01:23:39;;;;;;;6.80;4.00;;;5.00;90.00;;;;;;5132817;27;20096;-68
2021/05/07 01:26:05;;;;;;;3.50;3.20;;;5.00;90.10;;;;;;5132441;27;20057;-68
2021/05/07 01:28:33;;;;;;;5.20;3.53;;;5.00;90.00;;;;;;5131659;27;20127;-68
2021/05/07 01:30:58;;;;;;;4.67;3.83;;;4.90;90.00;;;;;;5132571;27;20402;-68
2021/05/07 01:33:24;;;;;;;4.53;3.47;;;5.00;90.10;;;;;;5132597;27;20295;-68
2021/05/07 01:35:50;;;;;;;7.27;4.00;;;4.90;90.00;;;;;;5131818;27;20372;-68
2021/05/07 01:38:17;;;;;;;5.10;3.63;;;4.90;90.00;;;;;;5132079;27;20077;-68
2021/05/07 01:40:45;;;;;;;5.57;3.80;;;4.80;90.00;;;;;;5132357;27;20309;-68
2021/05/07 01:43:12;;;;;;;6.77;4.20;;;4.80;90.00;;;;;;5131745;27;20285;-68
2021/05/07 01:45:40;;;;;;;6.47;4.50;;;4.70;90.00;;;;;;5132695;27;20297;-68
2021/05/07 01:48:07;;;;;;;5.93;3.97;;;4.70;90.10;;;;;;5132694;27;20320;-68
2021/05/07 01:50:36;;;;;;;5.73;4.47;;;4.70;90.10;;;;;;5131384;27;20317;-68
2021/05/07 01:53:02;;;;;;;6.37;4.70;;;4.60;90.20;;;;;;5131963;27;20305;-68
2021/05/07 01:55:29;;;;;;;6.23;5.07;;;4.60;90.20;;;;;;5131919;27;20777;-68
2021/05/07 01:57:56;;;;;;;6.50;5.07;;;4.50;90.20;;;;;;5131473;27;20296;-68
2021/05/07 02:00:26;;;;;;;6.70;5.33;;;4.50;90.20;;;;;;5132323;27;20319;-68
2021/05/07 02:02:53;;;;;;;5.80;5.20;;;4.40;90.30;;;;;;5132241;27;20345;-68
2021/05/07 02:05:20;;;;;;;5.30;4.40;;;4.40;90.30;;;;;;5131536;27;20308;-68
2021/05/07 02:07:50;;;;;;;6.03;4.60;;;4.40;90.30;;;;;;5132746;27;20288;-68
2021/05/07 02:10:18;;;;;;;6.17;4.70;;;4.30;90.30;;;;;;5136220;27;20316;-68
2021/05/07 02:12:44;;;;;;;6.73;5.10;;;4.30;90.40;;;;;;5135527;27;20297;-68
2021/05/07 02:15:17;;;;;;;6.07;5.00;;;4.30;90.40;;;;;;5136492;27;20307;-68
2021/05/07 02:17:42;;;;;;;6.93;4.87;;;4.30;90.50;;;;;;5135524;27;20043;-68
2021/05/07 02:20:10;;;;;;;7.33;5.43;;;4.30;90.60;;;;;;5136118;27;20796;-68
2021/05/07 02:22:36;;;;;;;5.80;4.93;;;4.30;90.60;;;;;;5135829;27;20042;-68
2021/05/07 02:25:03;;;;;;;7.00;4.93;;;4.30;90.70;;;;;;5134997;27;20784;-68
2021/05/07 02:27:28;;;;;;;8.27;5.20;;;4.30;90.70;;;;;;5135997;27;20043;-68
2021/05/07 02:29:54;;;;;;;8.27;5.70;;;4.40;90.70;;;;;;5135787;27;20304;-68
2021/05/07 02:32:21;;;;;;;8.00;6.03;;;4.40;90.80;;;;;;5135229;27;20078;-68
2021/05/07 02:34:46;;;;;;;6.90;5.50;;;4.40;90.70;;;;;;5135900;27;20054;-68
2021/05/07 02:37:12;;;;;;;5.80;5.20;;;4.40;90.60;;;;;;5136047;27;20292;-68
2021/05/07 02:39:38;;;;;;;5.97;4.80;;;4.40;90.60;;;;;;5134975;27;20051;-68
2021/05/07 02:42:04;;;;;;;7.17;5.53;;;4.30;90.60;;;;;;5135679;27;20043;-68
2021/05/07 02:44:29;;;;;;;5.10;4.60;;;4.30;90.70;;;;;;5135669;27;20164;-68
2021/05/07 02:47:03;;;;;;;6.30;5.27;;;4.40;90.70;;;;;;5134896;27;20316;-68
2021/05/07 02:49:29;;;;;;;7.17;5.70;;;4.40;90.70;;;;;;5135552;27;20076;-68
2021/05/07 02:51:55;;;;;;;6.37;5.60;;;4.40;90.50;;;;;;5135177;27;20304;-68
2021/05/07 02:54:23;;;;;;;7.67;5.17;;;4.40;90.50;;;;;;5134783;27;20296;-68
2021/05/07 02:56:49;;;;;;;10.40;5.63;;;4.40;90.60;;;;;;5135127;27;20789;-68
2021/05/07 02:59:16;;;;;;;6.23;5.30;;;4.30;90.60;;;;;;5135360;27;20346;-68
2021/05/07 03:01:42;;;;;;;6.30;5.27;;;4.30;90.60;;;;;;5134347;27;20498;-68
2021/05/07 03:04:08;;;;;;;6.23;5.43;;;4.30;90.60;;;;;;5135546;27;20436;-68
2021/05/07 03:06:34;;;;;;;7.53;6.27;;;4.20;90.60;;;;;;5134907;27;20773;-68
2021/05/07 03:09:01;;;;;;;6.27;4.97;;;4.20;90.60;;;;;;5134276;27;20047;-68
2021/05/07 03:11:26;;;;;;;8.40;6.23;;;4.20;90.70;;;;;;5135122;27;20074;-68
2021/05/07 03:13:53;;;;;;;8.57;6.00;;;4.30;90.80;;;;;;5134414;27;20765;-68
2021/05/07 03:16:21;;;;;;;7.23;5.70;;;4.20;90.70;;;;;;5134915;27;20139;-68
2021/05/07 03:18:48;;;;;;;6.07;5.23;;;4.20;90.80;;;;;;5134703;27;20299;-68
2021/05/07 03:21:13;;;;;;;6.67;5.97;;;4.20;90.80;;;;;;5133075;27;20358;-68
2021/05/07 03:23:39;;;;;;;6.57;5.67;;;4.20;90.80;;;;;;5134899;27;20289;-68
2021/05/07 03:26:05;;;;;;;7.70;6.47;;;4.30;90.80;;;;;;5135029;27;20055;-68
2021/05/07 03:28:31;;;;;;;7.40;5.90;;;4.30;90.90;;;;;;5133867;27;20372;-68
2021/05/07 03:30:57;;;;;;;6.70;5.50;;;4.30;90.90;;;;;;5134595;27;20047;-68
2021/05/07 03:33:22;;;;;;;8.63;5.37;;;4.30;90.90;;;;;;5134491;27;20050;-68
2021/05/07 03:35:48;;;;;;;6.33;5.73;;;4.30;90.80;;;;;;5133702;27;20058;-68
2021/05/07 03:38:13;;;;;;;7.77;5.40;;;4.30;90.90;;;;;;5134162;27;20399;-68
2021/05/07 03:40:39;;;;;;;7.73;5.77;;;4.40;90.80;;;;;;5134935;27;20051;-68
2021/05/07 03:43:05;;;;;;;6.00;5.20;;;4.40;90.80;;;;;;5133766;27;20421;-68
2021/05/07 03:45:30;;;;;;;5.70;5.10;;;4.40;90.80;;;;;;5134449;27;20058;-68
2021/05/07 03:47:56;;;;;;;6.87;5.37;;;4.40;90.90;;;;;;5134247;27;20111;-68
2021/05/07 03:50:22;;;;;;;5.60;4.87;;;4.30;90.80;;;;;;5133603;27;20050;-68
2021/05/07 03:52:48;;;;;;;5.50;4.50;;;4.30;90.90;;;;;;5134041;27;20059;-68
2021/05/07 03:55:14;;;;;;;7.37;4.97;;;4.40;90.90;;;;;;5134216;27;20322;-69
2021/05/07 03:57:41;;;;;;;4.73;4.20;;;4.40;90.80;;;;;;5133906;27;20158;-68
2021/05/07 04:00:11;;;;;;;6.63;5.00;;;4.40;90.90;;;;;;5134491;27;20331;-68
2021/05/07 04:02:39;;;;;;;5.90;4.67;;;4.50;90.90;;;;;;5133832;27;20758;-68
2021/05/07 04:05:05;;;;;;;6.03;4.47;;;4.50;90.80;;;;;;5133373;27;20324;-68
2021/05/07 04:07:31;;;;;;;4.87;3.70;;;4.50;90.80;;;;;;5133878;27;20299;-68
2021/05/07 04:10:05;;;;;;;5.20;3.73;;;4.60;90.90;;;;;;5133236;27;20486;-68
2021/05/07 04:14:59;;;;;;;4.40;3.77;;;4.60;90.90;;;;;;5133671;27;20327;-68
2021/05/07 04:17:25;;;;;;;5.13;3.80;;;4.60;90.80;;;;;;5133010;27;20285;-68
2021/05/07 04:19:51;;;;;;;4.57;4.10;;;4.60;90.80;;;;;;5133666;27;20047;-68
2021/05/07 04:22:16;;;;;;;4.90;3.67;;;4.60;90.80;;;;;;5133631;27;20051;-68
2021/05/07 04:24:43;;;;;;;4.40;3.70;;;4.70;90.80;;;;;;5132895;27;20043;-68
2021/05/07 04:27:09;;;;;;;6.50;4.50;;;4.70;90.70;;;;;;5133725;27;20349;-68
2021/05/07 04:29:35;;;;;;;5.93;3.57;;;4.70;90.70;;;;;;5133234;27;20380;-68
2021/05/07 04:32:01;;;;;;;3.90;3.50;;;4.80;90.70;;;;;;5132365;27;20392;-68
2021/05/07 04:34:26;;;;;;;5.37;4.10;;;4.80;90.70;;;;;;5133461;27;20043;-68
2021/05/07 04:36:53;;;;;;;6.93;3.77;;;4.80;90.70;;;;;;5133108;27;20047;-68
2021/05/07 04:39:19;;;;;;;4.80;3.50;;;4.80;90.70;;;;;;5132626;27;20043;-69
2021/05/07 04:41:45;;;;;;;4.70;3.33;;;4.70;90.60;;;;;;5133236;27;20301;-69
2021/05/07 04:44:10;;;;;;;4.40;3.40;;;4.70;90.70;;;;;;5133520;27;20776;-69
2021/05/07 04:46:36;;;;;;;4.63;3.93;;;4.70;90.80;;;;;;5132218;27;20047;-69
2021/05/07 04:49:02;;;;;;;4.60;3.07;;;4.70;90.80;;;;;;5133280;27;20055;-68
2021/05/07 04:51:28;;;;;;;5.10;3.33;;;4.70;90.80;;;;;;5132891;27;20057;-69
2021/05/07 04:53:55;;;;;;;6.47;3.67;;;4.70;90.80;;;;;;5132203;27;20309;-69
2021/05/07 04:56:20;;;;;;;4.40;3.30;;;4.70;90.70;;;;;;5132969;27;20383;-69
2021/05/07 04:58:46;;;;;;;6.03;3.53;;;4.70;90.70;;;;;;5132949;27;20316;-68
2021/05/07 05:01:12;;;;;;;4.30;2.80;;;4.70;90.70;;;;;;5132291;27;20043;-68
2021/05/07 05:03:37;;;;;;;3.60;3.00;;;4.80;90.70;;;;;;5133274;27;20046;-68
2021/05/07 05:06:03;;;;;;;4.33;2.77;;;4.80;90.70;;;;;;5132987;27;20126;-69
2021/05/07 05:08:30;;;;;;;3.20;2.70;;;4.80;90.60;;;;;;5131890;27;20047;-68
2021/05/07 05:10:57;;;;;;;3.13;2.43;;;4.80;90.50;;;;;;5132558;27;20054;-69
2021/05/07 05:13:23;;;;;;;3.23;2.87;;;4.80;90.50;;;;;;5131721;27;20768;-69
2021/05/07 05:15:53;;;;;;;3.07;2.50;;;4.80;90.50;;;;;;5132461;27;20796;-69
2021/05/07 05:18:30;;;;;;;4.33;2.83;;;4.80;90.50;;;;;;5132761;27;20293;-69
2021/05/07 05:21:04;;;;;;;4.33;3.17;;;4.90;90.60;;;;;;5131798;27;20293;-69
2021/05/07 05:23:30;;;;;;;3.33;3.03;;;5.10;91.00;;;;;;5132610;27;20293;-69
2021/05/07 05:25:57;;;;;;;4.17;3.57;;;5.50;91.10;;;;;;5132495;27;20301;-69
2021/05/07 05:28:24;;;;;;;4.27;2.73;;;6.20;90.70;;;;;;5131574;27;20292;-69
2021/05/07 05:30:50;;;;;;;2.90;2.57;;;7.00;90.30;;;;;;5132478;27;20320;-69
2021/05/07 05:33:16;;;;;;;3.63;1.80;;;7.80;88.30;;;;;;5132422;27;20297;-69
2021/05/07 05:35:42;;;;;;;2.00;1.80;;;8.40;86.30;;;;;;5131706;27;20296;-69
2021/05/07 05:38:08;;;;;;;1.80;1.70;;;8.90;84.70;;;;;;5132352;27;20817;-69
2021/05/07 05:40:33;;;;;;;1.60;1.40;;;9.30;82.30;;;;;;5131038;27;20088;-69
2021/05/07 05:43:01;;;;;;;1.77;1.43;;;9.50;82.10;;;;;;5131080;27;20391;-69
2021/05/07 05:45:27;;;;;;;1.67;1.37;;;9.70;81.50;;;;;;5132633;27;20054;-69
2021/05/07 05:48:04;;;;;;;1.40;1.30;;;9.90;81.00;;;;;;5132351;28;20051;-69
2021/05/07 05:50:37;;;;;;;1.40;1.10;;;10.10;80.20;;;;;;5131581;27;20051;-69
2021/05/07 05:53:04;;;;;;;2.97;1.30;;;10.30;79.50;;;;;;5131866;27;20182;-69
2021/05/07 05:55:30;;;;;;;0.80;0.80;;;10.60;79.70;;;;;;5131708;27;20449;-69
2021/05/07 05:57:57;;;;;;;1.30;0.90;;;11.30;77.80;;;;;;5132153;27;20047;-70
2021/05/07 06:00:23;;;;;;;2.77;0.93;;;11.90;75.50;;;;;;5132089;28;20055;-70
2021/05/07 06:02:49;;;;;;;2.20;0.70;;;12.60;73.40;;;;;;5131326;27;20043;-69
2021/05/07 06:05:15;;;;;;;0.90;0.77;;;12.60;71.20;;;;;;5132224;28;20403;-69
2021/05/07 06:07:42;;;;;;;1.37;0.80;;;12.20;70.80;;;;;;5131960;27;20077;-69
2021/05/07 06:10:11;;;;;;;1.63;0.80;;;11.60;71.50;;;;;;5131233;27;20480;-69
2021/05/07 06:12:38;;;;;;;1.70;0.80;;;11.10;72.60;;;;;;5132258;27;20123;-69
2021/05/07 06:15:05;;;;;;;2.83;0.97;;;10.50;73.10;;;;;;5132001;27;20118;-69
2021/05/07 06:17:30;;;;;;;2.93;1.27;;;10.10;73.80;;;;;;5131325;27;20055;-68
2021/05/07 06:20:02;;;;;;;1.20;0.80;;;9.70;74.40;;;;;;5131913;27;20043;-69
2021/05/07 06:22:28;;;;;;;;;;;9.40;75.40;;;;;;5132271;27;20127;-69
2021/05/07 06:24:53;;;;;;;1.93;1.00;;;9.30;75.20;;;;;;5131203;27;19923;-69
2021/05/07 06:27:19;;;;;;;1.67;0.80;;;9.40;76.40;;;;;;5131757;27;20039;-69
2021/05/07 06:29:45;;;;;;;1.50;0.87;;;9.50;75.80;;;;;;5131878;28;20061;-69
2021/05/07 06:32:10;;;;;;;3.03;0.90;;;9.70;75.20;;;;;;5131714;28;20059;-68
2021/05/07 06:34:36;;;;;;;3.97;1.10;;;10.10;75.00;;;;;;5131963;28;20126;-69
2021/05/07 06:37:01;;;;;;;2.23;0.90;;;10.40;74.10;;;;;;5131748;28;20043;-69
2021/05/07 06:39:30;;;;;;;2.00;0.90;;;10.60;73.20;;;;;;5131240;28;20070;-69
2021/05/07 06:42:00;;;;;;;2.37;1.43;;;10.70;72.80;;;;;;5131716;27;20441;-68
2021/05/07 06:44:26;;;;;;;2.87;1.00;;;10.60;72.60;;;;;;5131724;27;20047;-69
2021/05/07 06:46:53;;;;;;;1.23;1.13;;;10.40;73.40;;;;;;5131120;27;20087;-69
2021/05/07 06:49:19;;;;;;;3.30;1.13;;;10.60;72.60;;;;;;5131743;27;20062;-69
2021/05/07 06:51:45;;;;;;;2.27;0.90;;;10.70;72.30;;;;;;5131325;27;20063;-69
2021/05/07 06:54:11;;;;;;;1.50;1.00;;;10.80;72.20;;;;;;5131205;27;20059;-68
2021/05/07 06:56:37;;;;;;;1.63;1.10;;;10.90;72.30;;;;;;5135519;27;20054;-68
2021/05/07 06:59:03;;;;;;;2.27;1.33;;;10.90;71.90;;;;;;5134388;27;20050;-69
2021/05/07 07:01:29;;;;;;;1.97;1.20;;;10.80;71.40;;;;;;5135126;27;20483;-69
2021/05/07 07:03:55;;;;;;;2.57;1.10;;;10.90;71.00;;;;;;5135375;27;20039;-69
2021/05/07 07:06:21;;;;;;;1.40;1.10;;;10.80;70.80;;;;;;5134378;27;20116;-69
2021/05/07 07:08:47;;;;;;;2.57;1.23;;;10.80;71.40;;;;;;5134825;27;20066;-69
2021/05/07 07:11:14;;;;;;;4.33;1.27;;;10.80;71.10;;;;;;5134964;27;20069;-70
2021/05/07 07:13:39;;;;;;;2.93;1.30;;;10.80;70.20;;;;;;5134587;27;20047;-69
2021/05/07 07:16:05;;;;;;;1.47;1.10;;;10.80;69.60;;;;;;5134624;27;20095;-68
2021/05/07 07:18:31;;;;;;;3.87;1.70;;;10.80;69.70;;;;;;5134303;27;20402;-69
2021/05/07 07:20:56;;;;;;;3.00;1.40;;;10.90;69.90;;;;;;5133819;27;20043;-69
2021/05/07 07:23:22;;;;;;;3.03;1.67;;;11.20;70.10;;;;;;5134112;27;20063;-69
2021/05/07 07:25:47;;;;;;;3.97;1.47;;;11.50;69.20;;;;;;5134548;27;20491;-69
2021/05/07 07:28:17;;;;;;;4.30;1.50;;;11.70;68.80;;;;;;5134007;27;20483;-69
2021/05/07 07:30:43;;;;;;;3.23;1.63;;;11.80;68.50;;;;;;5134340;27;20522;-69
2021/05/07 07:33:09;;;;;;;2.13;1.20;;;11.90;68.20;;;;;;5134771;27;20430;-69
2021/05/07 07:35:35;;;;;;;3.17;1.50;;;11.80;68.40;;;;;;5133791;27;20047;-69
2021/05/07 07:38:00;;;;;;;3.13;1.60;;;11.80;67.90;;;;;;5134415;27;20081;-68
2021/05/07 07:40:26;;;;;;;2.30;1.70;;;11.70;68.10;;;;;;5134477;27;20127;-69
2021/05/07 07:42:51;;;;;;;4.57;1.60;;;11.50;67.80;;;;;;5133790;27;20035;-69
2021/05/07 07:45:17;;;;;;;2.80;1.60;;;11.40;67.90;;;;;;5134201;27;20051;-70
2021/05/07 07:47:43;;;;;;;2.90;1.87;;;11.10;68.20;;;;;;5133948;27;20043;-68
2021/05/07 07:50:09;;;;;;;6.43;1.83;;;11.00;68.80;;;;;;5133735;27;20070;-69
2021/05/07 07:52:37;;;;;;;4.00;1.80;;;11.10;69.10;;;;;;5133721;27;20062;-69
2021/05/07 07:55:03;;;;;;;4.93;1.57;;;11.10;69.00;;;;;;5134073;27;20156;-69
2021/05/07 07:57:29;;;;;;;3.47;1.60;;;11.20;69.00;;;;;;5133679;27;20051;-68
2021/05/07 07:59:55;;;;;;;3.03;1.80;;;11.20;67.80;;;;;;5133932;27;20407;-69
2021/05/07 08:02:22;;;;;;;3.43;1.90;;;11.10;67.70;;;;;;5132841;27;20067;-69
2021/05/07 08:04:48;;;;;;;2.27;1.70;;;11.10;68.20;;;;;;5133746;27;20111;-69
2021/05/07 08:07:13;;;;;;;3.70;1.60;;;11.20;68.40;;;;;;5133304;27;20047;-70
2021/05/07 08:09:40;;;;;;;4.93;1.93;;;11.50;68.90;;;;;;5133433;27;20406;-70
2021/05/07 08:12:07;;;;;;;3.00;1.87;;;11.90;68.20;;;;;;5134203;27;20127;-69
2021/05/07 08:14:36;;;;;;;3.63;1.63;;;12.20;66.90;;;;;;5134139;27;20047;-68
2021/05/07 08:17:03;;;;;;;4.93;1.80;;;12.60;65.60;;;;;;5132764;27;20131;-70
2021/05/07 08:19:29;;;;;;;5.87;2.67;;;13.00;65.10;;;;;;5133737;27;20039;-70
2021/05/07 08:21:55;;;;;;;6.20;2.13;;;13.30;64.30;;;;;;5133663;27;20095;-70
2021/05/07 08:24:21;;;;;;;4.33;1.67;;;13.60;63.00;;;;;;5132738;27;20051;-71
2021/05/07 08:26:47;;;;;;;3.97;1.70;;;13.60;62.50;;;;;;5133803;27;20051;-70
2021/05/07 08:29:13;;;;;;;3.33;1.50;;;13.50;62.00;;;;;;5133427;27;20055;-71
2021/05/07 08:31:39;;;;;;;3.27;1.63;;;13.50;61.40;;;;;;5133093;27;20520;-69
2021/05/07 08:34:04;;;;;;;3.03;1.40;;;13.40;60.70;;;;;;5133593;27;20051;-70
2021/05/07 08:36:30;;;;;;;4.33;1.57;;;13.40;60.60;;;;;;5133501;27;20093;-69
2021/05/07 08:38:56;;;;;;;4.93;1.80;;;13.60;60.30;;;;;;5132615;27;20050;-70
2021/05/07 08:41:22;;;;;;;5.23;1.67;;;13.70;59.80;;;;;;5133157;27;20039;-71
2021/05/07 08:43:51;;;;;;;3.53;1.40;;;13.60;59.20;;;;;;5133008;27;20051;-70
2021/05/07 08:46:18;;;;;;;3.97;1.73;;;13.60;59.00;;;;;;5132255;27;20049;-69
2021/05/07 08:48:44;;;;;;;2.27;1.20;;;13.50;58.80;;;;;;5132996;27;20472;-70
2021/05/07 08:51:11;;;;;;;3.47;1.53;;;13.60;58.50;;;;;;5133431;27;20104;-70
2021/05/07 08:53:37;;;;;;;2.00;1.50;;;13.60;57.90;;;;;;5132010;27;20058;-70
2021/05/07 08:56:07;;;;;;;2.27;1.30;;;13.50;57.10;;;;;;5132703;27;20050;-69
2021/05/07 08:58:35;;;;;;;1.98;1.25;;;13.50;57.50;;;;;;5132123;27;20047;-70
2021/05/07 09:01:01;;;;;;;3.10;1.70;;;13.40;57.00;;;;;;5132792;27;20478;-69
2021/05/07 09:03:37;;;;;;;1.77;1.30;;;13.40;57.60;;;;;;5132537;27;20039;-70
2021/05/07 09:06:14;;;;;;;2.73;1.17;;;13.60;56.20;;;;;;5131965;27;20062;-69
2021/05/07 09:08:40;;;;;;;4.70;1.60;;;13.90;54.30;;;;;;5132468;27;20035;-68
2021/05/07 09:11:05;;;;;;;2.37;1.33;;;14.10;56.50;;;;;;5132025;27;20054;-70
2021/05/07 09:13:31;;;;;;;2.67;1.50;;;14.00;55.40;;;;;;5131516;27;20043;-69
2021/05/07 09:16:07;;;;;;;5.37;1.17;;;14.00;55.60;;;;;;5132434;27;20133;-69
2021/05/07 09:18:53;;;;;;;3.90;1.10;;;13.90;54.00;;;;;;5131149;27;20051;-68
2021/05/07 09:21:18;;;;;;;1.53;0.70;;;13.60;51.20;;;;;;5131417;27;20047;-69
2021/05/07 09:23:47;;;;;;;2.07;0.70;;;13.40;51.70;;;;;;5132116;27;20057;-70
2021/05/07 09:26:14;;;;;;;2.53;1.10;;;13.40;50.60;;;;;;5132509;27;20046;-70
2021/05/07 09:28:51;;;;;;;3.33;1.17;;;13.60;50.40;;;;;;5132051;27;20044;-69
2021/05/07 09:31:18;;;;;;;1.33;0.70;;;13.80;50.20;;;;;;5132245;27;20054;-68
2021/05/07 09:33:47;;;;;;;2.87;0.90;;;13.90;50.60;;;;;;5131762;27;20081;-69
2021/05/07 09:36:42;;;;;;;3.10;0.70;;;13.80;50.20;;;;;;5132494;27;20043;-70
2021/05/07 09:39:12;;;;;;;2.70;0.83;;;13.40;48.40;;;;;;5118217;27;20054;-70
2021/05/07 09:41:39;;;;;;;1.83;1.03;;;13.30;48.80;;;;;;5131946;27;20144;-70
2021/05/07 09:44:22;;;;;;;1.77;0.77;;;13.60;49.20;;;;;;5132082;28;20050;-69
2021/05/07 09:46:50;;;;;;;3.80;1.20;;;13.80;47.40;;;;;;5132294;28;20050;-68
2021/05/07 09:49:30;;;;;;;2.87;1.17;;;13.80;48.10;;;;;;5131464;28;20142;-68
2021/05/07 09:51:57;;;;;;;2.60;0.93;;;13.90;48.00;;;;;;5131720;28;20444;-69
2021/05/07 09:54:24;;;;;;;2.87;0.80;;;13.80;47.30;;;;;;5132142;28;20104;-69
2021/05/07 09:56:50;;;;;;;1.77;0.77;;;13.60;47.00;;;;;;5131007;27;20449;-69
2021/05/07 09:59:18;;;;;;;2.27;0.90;;;13.40;47.30;;;;;;5132062;28;20449;-69
2021/05/07 10:01:48;;;;;;;1.17;0.70;;;13.50;48.50;;;;;;5131240;28;20047;-69
2021/05/07 10:04:14;;;;;;;2.93;0.90;;;13.60;47.40;;;;;;5131924;28;20092;-68
2021/05/07 10:06:41;;;;;;;3.73;0.90;;;13.60;47.30;;;;;;5132294;28;20066;-68
2021/05/07 10:09:08;;;;;;;3.13;0.57;;;13.50;47.70;;;;;;5131203;27;20187;-69
2021/05/07 10:11:38;;;;;;;1.63;0.70;;;13.40;46.00;;;;;;5131826;28;20079;-68
2021/05/07 10:14:07;;;;;;;1.57;0.77;;;13.40;46.70;;;;;;5131892;28;20043;-69
2021/05/07 10:16:34;;;;;;;1.63;0.90;;;13.60;47.10;;;;;;5131168;28;20481;-68
2021/05/07 10:19:11;;;;;;;2.03;0.90;;;13.50;47.10;;;;;;5132016;28;20444;-69
2021/05/07 10:21:40;;;;;;;2.50;0.80;;;13.70;47.20;;;;;;5132006;28;20146;-70
2021/05/07 10:24:08;;;;;;;2.33;0.90;;;13.70;48.10;;;;;;5131210;28;20070;-70
2021/05/07 10:26:50;;;;;;;2.10;0.80;;;13.70;46.50;;;;;;5131417;28;20472;-70
2021/05/07 10:29:22;;;;;;;2.17;1.00;;;13.50;47.80;;;;;;5133347;27;20047;-69
2021/05/07 10:31:49;;;;;;;;;;;13.20;48.40;;;;;;5134973;27;20051;-70
2021/05/07 10:34:15;;;;;;;1.37;0.60;;;13.00;49.00;;;;;;5135731;27;19923;-69
2021/05/07 10:37:11;;;;;;;2.57;1.03;;;13.00;49.20;;;;;;5135311;27;20043;-69
2021/05/07 10:39:51;;;;;;;3.27;0.80;;;13.10;48.10;;;;;;5135682;27;20047;-69
2021/05/07 10:42:17;;;;;;;2.27;0.97;;;13.10;48.70;;;;;;5135369;27;20467;-69
2021/05/07 10:44:43;;;;;;;2.33;1.10;;;13.10;49.30;;;;;;5134979;27;20043;-70
2021/05/07 10:47:10;;;;;;;2.03;0.90;;;12.90;50.00;;;;;;5135821;27;20095;-69
2021/05/07 10:49:44;;;;;;;0.93;0.70;;;12.90;50.20;;;;;;5135442;27;20063;-69
2021/05/07 10:52:12;;;;;;;0.80;0.70;;;12.90;49.60;;;;;;5134571;27;20055;-69
2021/05/07 10:54:45;;;;;;;1.63;0.70;;;13.10;50.00;;;;;;5135635;27;20407;-69
2021/05/07 10:57:21;;;;;;;3.27;1.17;;;13.20;48.70;;;;;;5135606;27;20107;-69
2021/05/07 11:00:16;;;;;;;3.53;0.73;;;13.30;48.30;;;;;;5134243;27;20529;-69
2021/05/07 11:02:54;;;;;;;0.67;0.63;;;13.40;48.70;;;;;;5134914;27;20449;-69
2021/05/07 11:05:47;;;;;;;1.80;0.67;;;13.20;48.30;;;;;;5134638;27;20124;-69
2021/05/07 11:08:13;;;;;;;3.93;0.90;;;12.80;48.40;;;;;;5134934;27;20084;-69
2021/05/07 11:10:39;;;;;;;1.93;0.80;;;12.60;49.70;;;;;;5135123;27;20099;-69
2021/05/07 11:13:06;;;;;;;3.97;0.90;;;12.60;49.60;;;;;;5134348;27;20555;-71
2021/05/07 11:15:32;;;;;;;1.43;0.80;;;12.70;49.00;;;;;;5134732;27;20452;-68
2021/05/07 11:18:11;;;;;;;3.30;1.10;;;12.80;47.90;;;;;;5134592;27;20517;-70
2021/05/07 11:20:42;;;;;;;2.93;1.00;;;12.60;47.70;;;;;;5134004;27;20081;-71
2021/05/07 11:23:13;;;;;;;3.33;0.97;;;12.50;48.30;;;;;;5134892;27;20075;-71
2021/05/07 11:25:40;;;;;;;6.18;1.30;;;12.30;49.10;;;;;;5135147;27;20052;-71
2021/05/07 11:28:20;;;;;;;9.83;1.47;;;12.30;50.10;;;;;;5133059;27;20047;-70
2021/05/07 11:30:49;;;;;;;11.13;1.40;;;12.40;51.10;;;;;;5134153;27;20047;-71
2021/05/07 11:33:16;;;;;;;11.07;1.43;;;12.60;51.10;;;;;;5133743;27;20163;-71
2021/05/07 11:35:42;;;;;;;2.53;0.97;;;12.70;50.90;;;;;;5134460;27;20043;-71
2021/05/07 11:38:07;;;;;;;7.50;1.10;;;13.00;51.10;;;;;;5134685;27;20039;-70
2021/05/07 11:40:38;;;;;;;4.53;1.00;;;13.10;49.90;;;;;;5132613;27;20177;-71
2021/05/07 11:43:12;;;;;;;9.00;1.33;;;13.20;48.70;;;;;;5134039;27;20042;-71
2021/05/07 11:45:40;;;;;;;3.50;1.10;;;13.30;48.70;;;;;;5134680;27;20058;-71
2021/05/07 11:48:14;;;;;;;1.97;0.77;;;13.30;49.20;;;;;;5133580;27;20063;-72
2021/05/07 11:50:40;;;;;;;3.93;0.80;;;13.20;48.50;;;;;;5134355;27;20057;-70
2021/05/07 11:53:21;;;;;;;3.27;0.80;;;13.20;49.00;;;;;;5134145;27;20055;-71
2021/05/07 11:55:47;;;;;;;2.43;0.63;;;13.20;48.80;;;;;;5133444;27;20047;-71
2021/05/07 11:58:12;;;;;;;2.57;0.87;;;13.20;49.00;;;;;;5134185;27;20172;-71
2021/05/07 12:00:40;;;;;;;2.30;0.80;;;13.30;48.70;;;;;;5134170;27;20488;-71
2021/05/07 12:03:14;;;;;;;3.23;0.93;;;13.60;49.00;;;;;;5133626;27;20092;-71
2021/05/07 12:05:44;;;;;;;5.10;0.93;;;13.60;47.90;;;;;;5134348;27;20051;-72
2021/05/07 12:08:10;;;;;;;2.53;1.07;;;13.50;48.90;;;;;;5134128;27;20043;-71
2021/05/07 12:10:42;;;;;;;3.17;1.23;;;13.60;48.80;;;;;;5133067;27;20066;-70
2021/05/07 12:13:09;;;;;;;4.17;0.80;;;13.60;48.10;;;;;;5133995;27;20047;-71
2021/05/07 12:15:51;;;;;;;0.97;0.60;;;13.60;47.50;;;;;;5133020;27;20046;-71
2021/05/07 12:18:26;;;;;;;1.17;0.87;;;13.60;46.20;;;;;;5133296;27;20074;-71
2021/05/07 12:20:55;;;;;;;2.03;1.00;;;13.60;46.70;;;;;;5133157;27;20035;-71
2021/05/07 12:23:21;;;;;;;10.03;0.90;;;13.80;46.90;;;;;;5132682;27;20079;-71
2021/05/07 12:25:48;;;;;;;2.43;1.03;;;13.90;46.80;;;;;;5133141;27;20405;-71
2021/05/07 12:28:22;;;;;;;6.67;1.00;;;14.10;46.80;;;;;;5133372;27;20141;-72
2021/05/07 12:30:49;;;;;;;1.60;0.80;;;14.20;45.80;;;;;;5132526;27;20544;-71
2021/05/07 12:33:20;;;;;;;3.50;0.90;;;14.40;46.50;;;;;;5133370;27;20049;-71
2021/05/07 12:35:46;;;;;;;7.10;0.93;;;14.50;45.80;;;;;;5133194;27;20456;-71
2021/05/07 12:38:28;;;;;;;2.20;0.97;;;14.40;45.40;;;;;;5132728;27;20138;-72
2021/05/07 12:40:56;;;;;;;;;;;14.10;45.00;;;;;;5133556;27;20047;-71
2021/05/07 12:43:22;;;;;;;1.03;0.60;;;13.60;45.00;;;;;;5133084;27;19919;-71
2021/05/07 12:45:49;;;;;;;2.07;0.80;;;13.40;47.30;;;;;;5132330;27;20054;-71
2021/05/07 12:48:16;;;;;;;1.80;0.70;;;13.30;47.00;;;;;;5133336;27;20054;-70
2021/05/07 12:50:46;;;;;;;4.13;1.00;;;13.10;47.40;;;;;;5132373;27;20043;-71
2021/05/07 12:53:20;;;;;;;4.23;1.10;;;12.80;47.50;;;;;;5132704;27;20055;-72
2021/05/07 12:55:46;;;;;;;1.30;0.90;;;12.80;48.70;;;;;;5133012;27;20039;-71
2021/05/07 12:58:13;;;;;;;2.73;1.20;;;13.00;48.90;;;;;;5132331;27;20058;-71